Reynolds, Nebraska
Current Conditions -  °F | °C
As of 5:15 PM on Tuesday 25 Nov 2014 (Local Time) from KHJH Reporting Station
Overcast Overcast  
Wind Chill:   Ceiling: 7500
Heat Index:   Visibility: 10mi
Dew Point: -8°   Wind: 7mph
Humidity: 33%   Direction: 220°SW
Pressure: 29.93"   Gusts: NA
Location:  40.06°N, 97.34°W
Report Text: KHJH 252315Z AUTO 22006KT 10SM SCT060 OVC075 08/M07 A2993 RMK AO2 T00781075
Loading
Personal Weather Stations






























Interactive Weather Map New forecast layout! Learn more

10-Day Weather Forecast

Advertisements
Track Severe Weather on mobile